sensor_id;sensor_type;location;lat;lon;timestamp;pressure;altitude;pressure_sealevel;temperature
5571;BMP180;2808;51.240;6.794;2022-09-09T00:02:28;100383.00;;;17.20
5571;BMP180;2808;51.240;6.794;2022-09-09T00:05:00;100387.00;;;17.20
5571;BMP180;2808;51.240;6.794;2022-09-09T00:07:41;100376.00;;;17.20
5571;BMP180;2808;51.240;6.794;2022-09-09T00:10:17;100377.00;;;17.10
5571;BMP180;2808;51.240;6.794;2022-09-09T00:13:15;100382.00;;;17.10
5571;BMP180;2808;51.240;6.794;2022-09-09T00:16:17;100387.00;;;17.20
5571;BMP180;2808;51.240;6.794;2022-09-09T00:18:55;100384.00;;;17.10
5571;BMP180;2808;51.240;6.794;2022-09-09T00:21:30;100374.00;;;17.10
5571;BMP180;2808;51.240;6.794;2022-09-09T00:24:10;100372.00;;;17.00
5571;BMP180;2808;51.240;6.794;2022-09-09T00:26:47;100372.00;;;17.00
5571;BMP180;2808;51.240;6.794;2022-09-09T00:29:22;100385.00;;;17.00
5571;BMP180;2808;51.240;6.794;2022-09-09T00:31:55;100380.00;;;16.90
5571;BMP180;2808;51.240;6.794;2022-09-09T00:34:27;100376.00;;;16.90
5571;BMP180;2808;51.240;6.794;2022-09-09T00:36:56;100379.00;;;16.90
5571;BMP180;2808;51.240;6.794;2022-09-09T00:39:31;100380.00;;;17.00
5571;BMP180;2808;51.240;6.794;2022-09-09T00:42:09;100373.00;;;17.00
5571;BMP180;2808;51.240;6.794;2022-09-09T00:44:50;100371.00;;;17.10
5571;BMP180;2808;51.240;6.794;2022-09-09T00:50:30;100373.00;;;17.00
5571;BMP180;2808;51.240;6.794;2022-09-09T00:53:10;100371.00;;;17.00
5571;BMP180;2808;51.240;6.794;2022-09-09T00:55:48;100365.00;;;17.10
5571;BMP180;2808;51.240;6.794;2022-09-09T00:58:16;100372.00;;;17.10
5571;BMP180;2808;51.240;6.794;2022-09-09T01:00:46;100367.00;;;17.10
5571;BMP180;2808;51.240;6.794;2022-09-09T01:03:22;100378.00;;;17.20
5571;BMP180;2808;51.240;6.794;2022-09-09T01:06:02;100369.00;;;17.20
5571;BMP180;2808;51.240;6.794;2022-09-09T01:08:51;100371.00;;;17.20
5571;BMP180;2808;51.240;6.794;2022-09-09T01:11:27;100370.00;;;17.20
5571;BMP180;2808;51.240;6.794;2022-09-09T01:14:00;100362.00;;;17.10
5571;BMP180;2808;51.240;6.794;2022-09-09T01:16:30;100365.00;;;17.10
5571;BMP180;2808;51.240;6.794;2022-09-09T01:18:59;100366.00;;;17.10
5571;BMP180;2808;51.240;6.794;2022-09-09T01:21:34;100361.00;;;17.10
5571;BMP180;2808;51.240;6.794;2022-09-09T01:24:20;100358.00;;;17.00
5571;BMP180;2808;51.240;6.794;2022-09-09T01:26:52;100365.00;;;17.00
5571;BMP180;2808;51.240;6.794;2022-09-09T01:29:22;100358.00;;;17.00
5571;BMP180;2808;51.240;6.794;2022-09-09T01:31:55;100356.00;;;17.00
5571;BMP180;2808;51.240;6.794;2022-09-09T01:34:25;100363.00;;;17.00
5571;BMP180;2808;51.240;6.794;2022-09-09T01:36:59;100355.00;;;16.90
5571;BMP180;2808;51.240;6.794;2022-09-09T01:39:31;100349.00;;;16.90
5571;BMP180;2808;51.240;6.794;2022-09-09T01:42:01;100347.00;;;16.90
5571;BMP180;2808;51.240;6.794;2022-09-09T01:44:30;100348.00;;;16.90
5571;BMP180;2808;51.240;6.794;2022-09-09T01:46:57;100348.00;;;16.90
5571;BMP180;2808;51.240;6.794;2022-09-09T01:49:25;100353.00;;;16.90
5571;BMP180;2808;51.240;6.794;2022-09-09T01:51:54;100346.00;;;16.90
5571;BMP180;2808;51.240;6.794;2022-09-09T01:54:24;100354.00;;;16.90
5571;BMP180;2808;51.240;6.794;2022-09-09T01:57:06;100352.00;;;17.00
5571;BMP180;2808;51.240;6.794;2022-09-09T01:59:45;100357.00;;;17.00
5571;BMP180;2808;51.240;6.794;2022-09-09T02:02:18;100357.00;;;17.00
5571;BMP180;2808;51.240;6.794;2022-09-09T02:04:49;100347.00;;;17.00
5571;BMP180;2808;51.240;6.794;2022-09-09T02:07:37;100353.00;;;17.00
5571;BMP180;2808;51.240;6.794;2022-09-09T02:10:23;100356.00;;;17.10
5571;BMP180;2808;51.240;6.794;2022-09-09T02:13:08;100355.00;;;17.10
5571;BMP180;2808;51.240;6.794;2022-09-09T02:15:47;100361.00;;;17.20
5571;BMP180;2808;51.240;6.794;2022-09-09T02:18:21;100357.00;;;17.20
5571;BMP180;2808;51.240;6.794;2022-09-09T02:20:52;100363.00;;;17.30
5571;BMP180;2808;51.240;6.794;2022-09-09T02:23:21;100356.00;;;17.20
5571;BMP180;2808;51.240;6.794;2022-09-09T02:25:49;100358.00;;;17.20
5571;BMP180;2808;51.240;6.794;2022-09-09T02:28:21;100360.00;;;17.30
5571;BMP180;2808;51.240;6.794;2022-09-09T02:30:51;100357.00;;;17.30
5571;BMP180;2808;51.240;6.794;2022-09-09T02:33:23;100362.00;;;17.20
5571;BMP180;2808;51.240;6.794;2022-09-09T02:35:53;100356.00;;;17.30
5571;BMP180;2808;51.240;6.794;2022-09-09T02:38:25;100354.00;;;17.30
5571;BMP180;2808;51.240;6.794;2022-09-09T02:40:53;100351.00;;;17.30
5571;BMP180;2808;51.240;6.794;2022-09-09T02:43:22;100348.00;;;17.30
5571;BMP180;2808;51.240;6.794;2022-09-09T02:46:00;100346.00;;;17.30
5571;BMP180;2808;51.240;6.794;2022-09-09T02:48:34;100352.00;;;17.30
5571;BMP180;2808;51.240;6.794;2022-09-09T02:51:08;100341.00;;;17.30
5571;BMP180;2808;51.240;6.794;2022-09-09T02:53:43;100343.00;;;17.30
5571;BMP180;2808;51.240;6.794;2022-09-09T02:56:17;100343.00;;;17.30
5571;BMP180;2808;51.240;6.794;2022-09-09T02:58:48;100340.00;;;17.30
5571;BMP180;2808;51.240;6.794;2022-09-09T03:01:18;100339.00;;;17.30
5571;BMP180;2808;51.240;6.794;2022-09-09T03:03:45;100336.00;;;17.30
5571;BMP180;2808;51.240;6.794;2022-09-09T03:06:12;100338.00;;;17.30
5571;BMP180;2808;51.240;6.794;2022-09-09T03:08:40;100336.00;;;17.20
5571;BMP180;2808;51.240;6.794;2022-09-09T03:11:09;100335.00;;;17.20
5571;BMP180;2808;51.240;6.794;2022-09-09T03:13:37;100335.00;;;17.20
5571;BMP180;2808;51.240;6.794;2022-09-09T03:16:07;100334.00;;;17.20
5571;BMP180;2808;51.240;6.794;2022-09-09T03:18:35;100338.00;;;17.20
5571;BMP180;2808;51.240;6.794;2022-09-09T03:21:02;100334.00;;;17.10
5571;BMP180;2808;51.240;6.794;2022-09-09T03:23:30;100332.00;;;17.20
5571;BMP180;2808;51.240;6.794;2022-09-09T03:25:57;100324.00;;;17.20
5571;BMP180;2808;51.240;6.794;2022-09-09T03:28:25;100323.00;;;17.20
5571;BMP180;2808;51.240;6.794;2022-09-09T03:30:59;100318.00;;;17.10
5571;BMP180;2808;51.240;6.794;2022-09-09T03:33:28;100331.00;;;17.10
5571;BMP180;2808;51.240;6.794;2022-09-09T03:35:56;100324.00;;;17.10
5571;BMP180;2808;51.240;6.794;2022-09-09T03:38:24;100332.00;;;17.10
5571;BMP180;2808;51.240;6.794;2022-09-09T03:40:53;100322.00;;;17.10
5571;BMP180;2808;51.240;6.794;2022-09-09T03:43:29;100332.00;;;17.10
5571;BMP180;2808;51.240;6.794;2022-09-09T03:45:57;100333.00;;;17.10
5571;BMP180;2808;51.240;6.794;2022-09-09T03:48:25;100326.00;;;17.10
5571;BMP180;2808;51.240;6.794;2022-09-09T03:50:55;100320.00;;;17.10
5571;BMP180;2808;51.240;6.794;2022-09-09T03:53:24;100316.00;;;17.10
5571;BMP180;2808;51.240;6.794;2022-09-09T03:55:54;100315.00;;;17.10
5571;BMP180;2808;51.240;6.794;2022-09-09T03:58:22;100315.00;;;17.10
5571;BMP180;2808;51.240;6.794;2022-09-09T04:00:57;100322.00;;;17.00
5571;BMP180;2808;51.240;6.794;2022-09-09T04:03:25;100324.00;;;17.00
5571;BMP180;2808;51.240;6.794;2022-09-09T04:05:55;100335.00;;;16.90
5571;BMP180;2808;51.240;6.794;2022-09-09T04:08:23;100323.00;;;16.90
5571;BMP180;2808;51.240;6.794;2022-09-09T04:10:52;100320.00;;;16.90
5571;BMP180;2808;51.240;6.794;2022-09-09T04:13:21;100323.00;;;16.90
5571;BMP180;2808;51.240;6.794;2022-09-09T04:16:09;100325.00;;;16.90
5571;BMP180;2808;51.240;6.794;2022-09-09T04:18:49;100330.00;;;16.90
5571;BMP180;2808;51.240;6.794;2022-09-09T04:21:18;100333.00;;;17.00
5571;BMP180;2808;51.240;6.794;2022-09-09T04:23:45;100326.00;;;17.00
5571;BMP180;2808;51.240;6.794;2022-09-09T04:26:12;100325.00;;;17.00
5571;BMP180;2808;51.240;6.794;2022-09-09T04:28:40;100330.00;;;16.90
5571;BMP180;2808;51.240;6.794;2022-09-09T04:31:09;100322.00;;;16.90
5571;BMP180;2808;51.240;6.794;2022-09-09T04:33:38;100322.00;;;16.90
5571;BMP180;2808;51.240;6.794;2022-09-09T04:36:07;100325.00;;;17.00
5571;BMP180;2808;51.240;6.794;2022-09-09T04:38:40;100332.00;;;17.00
5571;BMP180;2808;51.240;6.794;2022-09-09T04:41:08;100332.00;;;17.10
5571;BMP180;2808;51.240;6.794;2022-09-09T04:43:41;100330.00;;;17.10
5571;BMP180;2808;51.240;6.794;2022-09-09T04:46:13;100332.00;;;17.10
5571;BMP180;2808;51.240;6.794;2022-09-09T04:48:43;100322.00;;;17.10
5571;BMP180;2808;51.240;6.794;2022-09-09T04:51:13;100325.00;;;17.10
5571;BMP180;2808;51.240;6.794;2022-09-09T04:53:43;100323.00;;;17.20
5571;BMP180;2808;51.240;6.794;2022-09-09T04:56:13;100318.00;;;17.10
5571;BMP180;2808;51.240;6.794;2022-09-09T04:58:41;100331.00;;;17.20
5571;BMP180;2808;51.240;6.794;2022-09-09T05:01:10;100333.00;;;17.20
5571;BMP180;2808;51.240;6.794;2022-09-09T05:03:38;100335.00;;;17.20
5571;BMP180;2808;51.240;6.794;2022-09-09T05:06:07;100335.00;;;17.20
5571;BMP180;2808;51.240;6.794;2022-09-09T05:08:36;100325.00;;;17.30
5571;BMP180;2808;51.240;6.794;2022-09-09T05:11:36;100320.00;;;17.30
5571;BMP180;2808;51.240;6.794;2022-09-09T05:14:20;100321.00;;;17.30
5571;BMP180;2808;51.240;6.794;2022-09-09T05:16:48;100323.00;;;17.30
5571;BMP180;2808;51.240;6.794;2022-09-09T05:19:16;100322.00;;;17.30
5571;BMP180;2808;51.240;6.794;2022-09-09T05:21:48;100322.00;;;17.30
5571;BMP180;2808;51.240;6.794;2022-09-09T05:24:16;100322.00;;;17.20
5571;BMP180;2808;51.240;6.794;2022-09-09T05:26:50;100316.00;;;17.20
5571;BMP180;2808;51.240;6.794;2022-09-09T05:29:24;100319.00;;;17.30
5571;BMP180;2808;51.240;6.794;2022-09-09T05:32:07;100310.00;;;17.30
5571;BMP180;2808;51.240;6.794;2022-09-09T05:34:36;100317.00;;;17.40
5571;BMP180;2808;51.240;6.794;2022-09-09T05:37:08;100312.00;;;17.40
5571;BMP180;2808;51.240;6.794;2022-09-09T05:39:41;100315.00;;;17.40
5571;BMP180;2808;51.240;6.794;2022-09-09T05:42:13;100318.00;;;17.40
5571;BMP180;2808;51.240;6.794;2022-09-09T05:44:41;100319.00;;;17.40
5571;BMP180;2808;51.240;6.794;2022-09-09T05:47:11;100315.00;;;17.50
5571;BMP180;2808;51.240;6.794;2022-09-09T05:49:38;100315.00;;;17.50
5571;BMP180;2808;51.240;6.794;2022-09-09T05:52:06;100322.00;;;17.50
5571;BMP180;2808;51.240;6.794;2022-09-09T05:54:36;100321.00;;;17.60
5571;BMP180;2808;51.240;6.794;2022-09-09T05:57:19;100324.00;;;17.70
5571;BMP180;2808;51.240;6.794;2022-09-09T05:59:47;100331.00;;;17.70
5571;BMP180;2808;51.240;6.794;2022-09-09T06:02:16;100326.00;;;17.80
5571;BMP180;2808;51.240;6.794;2022-09-09T06:04:43;100324.00;;;17.80
5571;BMP180;2808;51.240;6.794;2022-09-09T06:07:10;100335.00;;;17.90
5571;BMP180;2808;51.240;6.794;2022-09-09T06:09:39;100335.00;;;17.90
5571;BMP180;2808;51.240;6.794;2022-09-09T06:12:10;100326.00;;;17.90
5571;BMP180;2808;51.240;6.794;2022-09-09T06:14:39;100330.00;;;18.10
5571;BMP180;2808;51.240;6.794;2022-09-09T06:17:06;100322.00;;;18.20
5571;BMP180;2808;51.240;6.794;2022-09-09T06:19:47;100334.00;;;18.30
5571;BMP180;2808;51.240;6.794;2022-09-09T06:26:06;100338.00;;;18.30
5571;BMP180;2808;51.240;6.794;2022-09-09T06:28:37;100331.00;;;18.30
5571;BMP180;2808;51.240;6.794;2022-09-09T06:34:37;100331.00;;;18.40
5571;BMP180;2808;51.240;6.794;2022-09-09T06:37:06;100335.00;;;18.30
5571;BMP180;2808;51.240;6.794;2022-09-09T06:39:56;100336.00;;;18.30
5571;BMP180;2808;51.240;6.794;2022-09-09T06:45:10;100341.00;;;18.60
5571;BMP180;2808;51.240;6.794;2022-09-09T06:51:28;100333.00;;;19.70
5571;BMP180;2808;51.240;6.794;2022-09-09T06:54:41;100335.00;;;20.00
5571;BMP180;2808;51.240;6.794;2022-09-09T06:57:41;100339.00;;;20.00
5571;BMP180;2808;51.240;6.794;2022-09-09T07:01:01;100335.00;;;19.70
5571;BMP180;2808;51.240;6.794;2022-09-09T07:04:14;100343.00;;;19.60
5571;BMP180;2808;51.240;6.794;2022-09-09T07:10:40;100338.00;;;19.50
5571;BMP180;2808;51.240;6.794;2022-09-09T07:13:49;100343.00;;;19.40
5571;BMP180;2808;51.240;6.794;2022-09-09T07:16:23;100344.00;;;19.40
5571;BMP180;2808;51.240;6.794;2022-09-09T07:18:54;100353.00;;;19.20
5571;BMP180;2808;51.240;6.794;2022-09-09T07:24:27;100350.00;;;19.00
5571;BMP180;2808;51.240;6.794;2022-09-09T07:26:58;100362.00;;;19.00
5571;BMP180;2808;51.240;6.794;2022-09-09T07:29:26;100357.00;;;19.10
5571;BMP180;2808;51.240;6.794;2022-09-09T07:31:54;100356.00;;;19.00
5571;BMP180;2808;51.240;6.794;2022-09-09T07:35:18;100363.00;;;19.00
5571;BMP180;2808;51.240;6.794;2022-09-09T07:38:10;100355.00;;;19.00
5571;BMP180;2808;51.240;6.794;2022-09-09T07:40:39;100365.00;;;19.10
5571;BMP180;2808;51.240;6.794;2022-09-09T07:43:14;100364.00;;;19.30
5571;BMP180;2808;51.240;6.794;2022-09-09T07:45:44;100375.00;;;19.60
5571;BMP180;2808;51.240;6.794;2022-09-09T07:48:16;100368.00;;;19.80
5571;BMP180;2808;51.240;6.794;2022-09-09T07:51:07;100376.00;;;19.80
5571;BMP180;2808;51.240;6.794;2022-09-09T07:53:35;100380.00;;;19.70
5571;BMP180;2808;51.240;6.794;2022-09-09T07:56:06;100381.00;;;19.60
5571;BMP180;2808;51.240;6.794;2022-09-09T07:58:37;100378.00;;;19.70
5571;BMP180;2808;51.240;6.794;2022-09-09T08:01:10;100370.00;;;19.70
5571;BMP180;2808;51.240;6.794;2022-09-09T08:03:40;100382.00;;;19.60
5571;BMP180;2808;51.240;6.794;2022-09-09T08:06:09;100365.00;;;19.50
5571;BMP180;2808;51.240;6.794;2022-09-09T08:08:36;100369.00;;;19.50
5571;BMP180;2808;51.240;6.794;2022-09-09T08:11:06;100370.00;;;19.60
5571;BMP180;2808;51.240;6.794;2022-09-09T08:13:37;100377.00;;;19.60
5571;BMP180;2808;51.240;6.794;2022-09-09T08:16:07;100369.00;;;19.60
5571;BMP180;2808;51.240;6.794;2022-09-09T08:18:35;100383.00;;;19.60
5571;BMP180;2808;51.240;6.794;2022-09-09T08:21:08;100371.00;;;19.70
5571;BMP180;2808;51.240;6.794;2022-09-09T08:23:37;100378.00;;;19.80
5571;BMP180;2808;51.240;6.794;2022-09-09T08:26:12;100377.00;;;19.90
5571;BMP180;2808;51.240;6.794;2022-09-09T08:28:57;100381.00;;;20.20
5571;BMP180;2808;51.240;6.794;2022-09-09T08:31:27;100378.00;;;20.50
5571;BMP180;2808;51.240;6.794;2022-09-09T08:33:56;100376.00;;;20.60
5571;BMP180;2808;51.240;6.794;2022-09-09T08:36:49;100379.00;;;20.50
5571;BMP180;2808;51.240;6.794;2022-09-09T08:39:23;100376.00;;;20.40
5571;BMP180;2808;51.240;6.794;2022-09-09T08:42:17;100376.00;;;20.40
5571;BMP180;2808;51.240;6.794;2022-09-09T08:47:45;100377.00;;;20.70
5571;BMP180;2808;51.240;6.794;2022-09-09T08:50:21;100379.00;;;20.70
5571;BMP180;2808;51.240;6.794;2022-09-09T08:53:02;100385.00;;;20.80
5571;BMP180;2808;51.240;6.794;2022-09-09T08:55:39;100371.00;;;20.70
5571;BMP180;2808;51.240;6.794;2022-09-09T08:58:13;100374.00;;;20.70
5571;BMP180;2808;51.240;6.794;2022-09-09T09:00:54;100375.00;;;20.60
5571;BMP180;2808;51.240;6.794;2022-09-09T09:09:52;100392.00;;;20.40
5571;BMP180;2808;51.240;6.794;2022-09-09T09:12:26;100394.00;;;20.30
5571;BMP180;2808;51.240;6.794;2022-09-09T09:14:55;100389.00;;;20.10
5571;BMP180;2808;51.240;6.794;2022-09-09T09:27:34;100393.00;;;20.00
5571;BMP180;2808;51.240;6.794;2022-09-09T09:30:16;100390.00;;;20.00
5571;BMP180;2808;51.240;6.794;2022-09-09T09:33:02;100399.00;;;20.10
5571;BMP180;2808;51.240;6.794;2022-09-09T09:35:48;100394.00;;;20.00
5571;BMP180;2808;51.240;6.794;2022-09-09T09:38:34;100396.00;;;20.10
5571;BMP180;2808;51.240;6.794;2022-09-09T09:41:05;100399.00;;;20.40
5571;BMP180;2808;51.240;6.794;2022-09-09T09:43:39;100382.00;;;20.70
5571;BMP180;2808;51.240;6.794;2022-09-09T09:49:17;100394.00;;;21.50
5571;BMP180;2808;51.240;6.794;2022-09-09T09:51:49;100392.00;;;21.70
5571;BMP180;2808;51.240;6.794;2022-09-09T09:54:51;100393.00;;;21.60
5571;BMP180;2808;51.240;6.794;2022-09-09T09:57:46;100388.00;;;21.50
5571;BMP180;2808;51.240;6.794;2022-09-09T10:00:36;100387.00;;;21.50
5571;BMP180;2808;51.240;6.794;2022-09-09T10:03:22;100388.00;;;21.40
5571;BMP180;2808;51.240;6.794;2022-09-09T10:05:53;100388.00;;;21.40
5571;BMP180;2808;51.240;6.794;2022-09-09T10:08:33;100386.00;;;21.40
5571;BMP180;2808;51.240;6.794;2022-09-09T10:14:57;100376.00;;;21.60
5571;BMP180;2808;51.240;6.794;2022-09-09T10:17:44;100371.00;;;21.70
5571;BMP180;2808;51.240;6.794;2022-09-09T10:20:37;100379.00;;;21.80
5571;BMP180;2808;51.240;6.794;2022-09-09T10:23:36;100367.00;;;21.80
5571;BMP180;2808;51.240;6.794;2022-09-09T10:26:37;100374.00;;;21.80
5571;BMP180;2808;51.240;6.794;2022-09-09T10:29:47;100374.00;;;21.70
5571;BMP180;2808;51.240;6.794;2022-09-09T10:32:38;100374.00;;;21.80
5571;BMP180;2808;51.240;6.794;2022-09-09T10:35:25;100380.00;;;21.60
5571;BMP180;2808;51.240;6.794;2022-09-09T10:38:29;100367.00;;;21.30
5571;BMP180;2808;51.240;6.794;2022-09-09T10:41:19;100381.00;;;21.30
5571;BMP180;2808;51.240;6.794;2022-09-09T10:47:47;100366.00;;;21.40
5571;BMP180;2808;51.240;6.794;2022-09-09T10:50:28;100369.00;;;21.60
5571;BMP180;2808;51.240;6.794;2022-09-09T10:53:02;100368.00;;;21.80
5571;BMP180;2808;51.240;6.794;2022-09-09T10:55:40;100369.00;;;21.80
5571;BMP180;2808;51.240;6.794;2022-09-09T10:58:14;100369.00;;;21.90
5571;BMP180;2808;51.240;6.794;2022-09-09T11:00:45;100358.00;;;21.90
5571;BMP180;2808;51.240;6.794;2022-09-09T11:03:21;100365.00;;;21.90
5571;BMP180;2808;51.240;6.794;2022-09-09T11:06:01;100358.00;;;21.90
5571;BMP180;2808;51.240;6.794;2022-09-09T11:08:39;100359.00;;;21.90
5571;BMP180;2808;51.240;6.794;2022-09-09T11:11:13;100359.00;;;22.10
5571;BMP180;2808;51.240;6.794;2022-09-09T11:17:36;100360.00;;;21.90
5571;BMP180;2808;51.240;6.794;2022-09-09T11:20:34;100366.00;;;21.30
5571;BMP180;2808;51.240;6.794;2022-09-09T11:23:12;100366.00;;;21.10
5571;BMP180;2808;51.240;6.794;2022-09-09T11:25:59;100365.00;;;21.00
5571;BMP180;2808;51.240;6.794;2022-09-09T11:28:58;100370.00;;;21.00
5571;BMP180;2808;51.240;6.794;2022-09-09T11:32:00;100376.00;;;21.00
5571;BMP180;2808;51.240;6.794;2022-09-09T11:34:56;100381.00;;;21.10
5571;BMP180;2808;51.240;6.794;2022-09-09T11:38:02;100385.00;;;21.10
5571;BMP180;2808;51.240;6.794;2022-09-09T11:41:10;100377.00;;;21.20
5571;BMP180;2808;51.240;6.794;2022-09-09T11:43:42;100370.00;;;21.50
5571;BMP180;2808;51.240;6.794;2022-09-09T11:46:20;100374.00;;;21.80
5571;BMP180;2808;51.240;6.794;2022-09-09T11:49:23;100373.00;;;21.50
5571;BMP180;2808;51.240;6.794;2022-09-09T11:52:12;100376.00;;;21.60
5571;BMP180;2808;51.240;6.794;2022-09-09T11:57:47;100368.00;;;21.30
5571;BMP180;2808;51.240;6.794;2022-09-09T12:03:37;100371.00;;;20.90
5571;BMP180;2808;51.240;6.794;2022-09-09T12:06:15;100381.00;;;20.90
5571;BMP180;2808;51.240;6.794;2022-09-09T12:08:46;100384.00;;;20.80
5571;BMP180;2808;51.240;6.794;2022-09-09T12:11:25;100377.00;;;20.90
5571;BMP180;2808;51.240;6.794;2022-09-09T12:13:57;100389.00;;;21.10
5571;BMP180;2808;51.240;6.794;2022-09-09T12:16:30;100380.00;;;21.40
5571;BMP180;2808;51.240;6.794;2022-09-09T12:19:14;100374.00;;;21.50
5571;BMP180;2808;51.240;6.794;2022-09-09T12:22:00;100383.00;;;21.70
5571;BMP180;2808;51.240;6.794;2022-09-09T12:24:37;100366.00;;;21.90
5571;BMP180;2808;51.240;6.794;2022-09-09T12:27:22;100364.00;;;22.00
5571;BMP180;2808;51.240;6.794;2022-09-09T12:30:07;100372.00;;;22.00
5571;BMP180;2808;51.240;6.794;2022-09-09T12:32:59;100362.00;;;21.90
5571;BMP180;2808;51.240;6.794;2022-09-09T12:35:31;100354.00;;;21.90
5571;BMP180;2808;51.240;6.794;2022-09-09T12:38:01;100372.00;;;21.90
5571;BMP180;2808;51.240;6.794;2022-09-09T12:40:35;100360.00;;;21.90
5571;BMP180;2808;51.240;6.794;2022-09-09T12:43:19;100358.00;;;22.00
5571;BMP180;2808;51.240;6.794;2022-09-09T12:46:07;100356.00;;;22.10
5571;BMP180;2808;51.240;6.794;2022-09-09T12:52:29;100363.00;;;22.10
5571;BMP180;2808;51.240;6.794;2022-09-09T12:55:07;100352.00;;;22.00
5571;BMP180;2808;51.240;6.794;2022-09-09T12:57:47;100344.00;;;21.90
5571;BMP180;2808;51.240;6.794;2022-09-09T13:00:51;100347.00;;;21.90
5571;BMP180;2808;51.240;6.794;2022-09-09T13:07:19;100355.00;;;21.90
5571;BMP180;2808;51.240;6.794;2022-09-09T13:13:33;100350.00;;;21.90
5571;BMP180;2808;51.240;6.794;2022-09-09T13:16:03;100349.00;;;21.80
5571;BMP180;2808;51.240;6.794;2022-09-09T13:18:36;100347.00;;;21.80
5571;BMP180;2808;51.240;6.794;2022-09-09T13:21:18;100359.00;;;21.90
5571;BMP180;2808;51.240;6.794;2022-09-09T13:23:54;100350.00;;;21.80
5571;BMP180;2808;51.240;6.794;2022-09-09T13:26:25;100350.00;;;21.70
5571;BMP180;2808;51.240;6.794;2022-09-09T13:29:07;100347.00;;;21.70
5571;BMP180;2808;51.240;6.794;2022-09-09T13:31:37;100343.00;;;21.80
5571;BMP180;2808;51.240;6.794;2022-09-09T13:34:13;100345.00;;;21.80
5571;BMP180;2808;51.240;6.794;2022-09-09T13:36:48;100336.00;;;21.70
5571;BMP180;2808;51.240;6.794;2022-09-09T13:39:18;100335.00;;;21.70
5571;BMP180;2808;51.240;6.794;2022-09-09T13:41:51;100340.00;;;21.70
5571;BMP180;2808;51.240;6.794;2022-09-09T13:44:27;100346.00;;;21.80
5571;BMP180;2808;51.240;6.794;2022-09-09T13:47:18;100335.00;;;21.90
5571;BMP180;2808;51.240;6.794;2022-09-09T13:50:21;100330.00;;;21.90
5571;BMP180;2808;51.240;6.794;2022-09-09T14:06:42;100339.00;;;21.30
5571;BMP180;2808;51.240;6.794;2022-09-09T14:09:24;100344.00;;;21.30
5571;BMP180;2808;51.240;6.794;2022-09-09T14:12:52;100333.00;;;21.50
5571;BMP180;2808;51.240;6.794;2022-09-09T14:15:42;100335.00;;;21.90
5571;BMP180;2808;51.240;6.794;2022-09-09T14:18:40;100333.00;;;22.10
5571;BMP180;2808;51.240;6.794;2022-09-09T14:21:19;100345.00;;;22.20
5571;BMP180;2808;51.240;6.794;2022-09-09T14:24:10;100344.00;;;22.10
5571;BMP180;2808;51.240;6.794;2022-09-09T14:27:14;100333.00;;;22.00
5571;BMP180;2808;51.240;6.794;2022-09-09T14:29:57;100337.00;;;22.00
5571;BMP180;2808;51.240;6.794;2022-09-09T14:32:26;100337.00;;;21.80
5571;BMP180;2808;51.240;6.794;2022-09-09T14:34:54;100366.00;;;21.70
5571;BMP180;2808;51.240;6.794;2022-09-09T14:41:17;100359.00;;;20.80
5571;BMP180;2808;51.240;6.794;2022-09-09T14:44:24;100351.00;;;20.50
5571;BMP180;2808;51.240;6.794;2022-09-09T14:58:18;100388.00;;;19.50
5571;BMP180;2808;51.240;6.794;2022-09-09T15:01:45;100387.00;;;19.20
5571;BMP180;2808;51.240;6.794;2022-09-09T15:04:39;100371.00;;;19.10
5571;BMP180;2808;51.240;6.794;2022-09-09T15:07:23;100376.00;;;18.90
5571;BMP180;2808;51.240;6.794;2022-09-09T15:09:54;100369.00;;;18.90
5571;BMP180;2808;51.240;6.794;2022-09-09T15:12:27;100366.00;;;18.80
5571;BMP180;2808;51.240;6.794;2022-09-09T15:46:23;100358.00;;;18.60
5571;BMP180;2808;51.240;6.794;2022-09-09T15:48:54;100355.00;;;18.70
5571;BMP180;2808;51.240;6.794;2022-09-09T15:51:23;100358.00;;;18.80
5571;BMP180;2808;51.240;6.794;2022-09-09T15:53:55;100366.00;;;18.80
5571;BMP180;2808;51.240;6.794;2022-09-09T15:56:58;100384.00;;;18.70
5571;BMP180;2808;51.240;6.794;2022-09-09T15:59:44;100389.00;;;18.60
5571;BMP180;2808;51.240;6.794;2022-09-09T16:02:13;100384.00;;;18.60
5571;BMP180;2808;51.240;6.794;2022-09-09T16:04:41;100382.00;;;18.30
5571;BMP180;2808;51.240;6.794;2022-09-09T16:07:09;100378.00;;;18.20
5571;BMP180;2808;51.240;6.794;2022-09-09T16:09:37;100383.00;;;18.10
5571;BMP180;2808;51.240;6.794;2022-09-09T16:12:05;100373.00;;;17.90
5571;BMP180;2808;51.240;6.794;2022-09-09T16:14:38;100374.00;;;18.00
5571;BMP180;2808;51.240;6.794;2022-09-09T16:17:06;100383.00;;;18.10
5571;BMP180;2808;51.240;6.794;2022-09-09T16:19:43;100379.00;;;18.20
5571;BMP180;2808;51.240;6.794;2022-09-09T16:22:33;100377.00;;;18.20
5571;BMP180;2808;51.240;6.794;2022-09-09T16:25:06;100381.00;;;18.20
5571;BMP180;2808;51.240;6.794;2022-09-09T16:31:05;100383.00;;;17.90
5571;BMP180;2808;51.240;6.794;2022-09-09T16:33:43;100381.00;;;17.80
5571;BMP180;2808;51.240;6.794;2022-09-09T16:36:35;100384.00;;;17.60
5571;BMP180;2808;51.240;6.794;2022-09-09T16:39:17;100378.00;;;17.70
5571;BMP180;2808;51.240;6.794;2022-09-09T16:42:14;100387.00;;;17.70
5571;BMP180;2808;51.240;6.794;2022-09-09T16:44:43;100385.00;;;17.80
5571;BMP180;2808;51.240;6.794;2022-09-09T16:47:34;100389.00;;;17.60
5571;BMP180;2808;51.240;6.794;2022-09-09T16:50:31;100383.00;;;17.60
5571;BMP180;2808;51.240;6.794;2022-09-09T16:53:00;100384.00;;;17.50
5571;BMP180;2808;51.240;6.794;2022-09-09T16:55:40;100380.00;;;17.50
5571;BMP180;2808;51.240;6.794;2022-09-09T16:58:10;100369.00;;;17.50
5571;BMP180;2808;51.240;6.794;2022-09-09T17:00:40;100378.00;;;17.60
5571;BMP180;2808;51.240;6.794;2022-09-09T17:03:22;100378.00;;;17.70
5571;BMP180;2808;51.240;6.794;2022-09-09T17:05:52;100382.00;;;17.70
5571;BMP180;2808;51.240;6.794;2022-09-09T17:08:21;100377.00;;;17.70
5571;BMP180;2808;51.240;6.794;2022-09-09T17:10:52;100378.00;;;17.70
5571;BMP180;2808;51.240;6.794;2022-09-09T17:13:19;100383.00;;;17.70
5571;BMP180;2808;51.240;6.794;2022-09-09T17:15:51;100375.00;;;17.80
5571;BMP180;2808;51.240;6.794;2022-09-09T17:18:21;100387.00;;;17.80
5571;BMP180;2808;51.240;6.794;2022-09-09T17:20:51;100386.00;;;17.80
5571;BMP180;2808;51.240;6.794;2022-09-09T17:23:18;100391.00;;;17.80
5571;BMP180;2808;51.240;6.794;2022-09-09T17:25:56;100393.00;;;17.80
5571;BMP180;2808;51.240;6.794;2022-09-09T17:28:24;100394.00;;;17.70
5571;BMP180;2808;51.240;6.794;2022-09-09T17:30:53;100391.00;;;17.70
5571;BMP180;2808;51.240;6.794;2022-09-09T17:33:21;100395.00;;;17.70
5571;BMP180;2808;51.240;6.794;2022-09-09T17:35:52;100388.00;;;17.70
5571;BMP180;2808;51.240;6.794;2022-09-09T17:38:21;100394.00;;;17.70